sensor_id;sensor_type;location;lat;lon;timestamp;pressure;altitude;pressure_sealevel;temperature;humidity
69772;BME280;57046;45.988;18.664;2024-01-11T00:00:25;102179.28;;;-3.20;69.55
69772;BME280;57046;45.988;18.664;2024-01-11T00:02:50;102189.97;;;-3.13;69.10
69772;BME280;57046;45.988;18.664;2024-01-11T00:05:16;102178.25;;;-3.04;69.30
69772;BME280;57046;45.988;18.664;2024-01-11T00:07:41;102176.28;;;-2.95;68.71
69772;BME280;57046;45.988;18.664;2024-01-11T00:10:06;102179.69;;;-3.01;68.75
69772;BME280;57046;45.988;18.664;2024-01-11T00:12:32;102166.22;;;-3.06;68.71
69772;BME280;57046;45.988;18.664;2024-01-11T00:14:57;102175.41;;;-3.02;68.92
69772;BME280;57046;45.988;18.664;2024-01-11T00:17:22;102178.69;;;-3.00;68.82
69772;BME280;57046;45.988;18.664;2024-01-11T00:19:48;102177.44;;;-3.04;68.66
69772;BME280;57046;45.988;18.664;2024-01-11T00:22:13;102172.69;;;-3.09;68.57
69772;BME280;57046;45.988;18.664;2024-01-11T00:24:38;102171.47;;;-3.13;68.58
69772;BME280;57046;45.988;18.664;2024-01-11T00:27:04;102161.81;;;-3.21;68.67
69772;BME280;57046;45.988;18.664;2024-01-11T00:29:29;102160.38;;;-3.23;68.72
69772;BME280;57046;45.988;18.664;2024-01-11T00:31:54;102160.47;;;-3.31;68.93
69772;BME280;57046;45.988;18.664;2024-01-11T00:34:21;102145.03;;;-3.49;68.66
69772;BME280;57046;45.988;18.664;2024-01-11T00:36:46;102168.63;;;-3.26;68.90
69772;BME280;57046;45.988;18.664;2024-01-11T00:39:12;102161.38;;;-3.24;68.89
69772;BME280;57046;45.988;18.664;2024-01-11T00:41:37;102150.53;;;-3.29;68.68
69772;BME280;57046;45.988;18.664;2024-01-11T00:44:03;102161.75;;;-3.27;68.61
69772;BME280;57046;45.988;18.664;2024-01-11T00:46:28;102154.38;;;-3.32;68.82
69772;BME280;57046;45.988;18.664;2024-01-11T00:48:53;102155.13;;;-3.38;69.17
69772;BME280;57046;45.988;18.664;2024-01-11T00:51:19;102156.47;;;-3.42;69.26
69772;BME280;57046;45.988;18.664;2024-01-11T00:53:44;102148.72;;;-3.43;69.31
69772;BME280;57046;45.988;18.664;2024-01-11T00:56:16;102146.66;;;-3.48;69.22
69772;BME280;57046;45.988;18.664;2024-01-11T00:58:42;102147.13;;;-3.59;69.32
69772;BME280;57046;45.988;18.664;2024-01-11T01:01:09;102144.66;;;-3.61;69.73
69772;BME280;57046;45.988;18.664;2024-01-11T01:03:34;102150.59;;;-3.58;69.29
69772;BME280;57046;45.988;18.664;2024-01-11T01:05:59;102146.13;;;-3.58;68.95
69772;BME280;57046;45.988;18.664;2024-01-11T01:08:26;102137.13;;;-3.64;69.46
69772;BME280;57046;45.988;18.664;2024-01-11T01:10:51;102131.75;;;-3.70;69.51
69772;BME280;57046;45.988;18.664;2024-01-11T01:13:16;102141.94;;;-3.67;69.22
69772;BME280;57046;45.988;18.664;2024-01-11T01:15:42;102149.63;;;-3.72;69.37
69772;BME280;57046;45.988;18.664;2024-01-11T01:18:07;102148.34;;;-3.76;69.59
69772;BME280;57046;45.988;18.664;2024-01-11T01:20:32;102151.44;;;-3.73;69.27
69772;BME280;57046;45.988;18.664;2024-01-11T01:22:58;102143.69;;;-3.74;69.37
69772;BME280;57046;45.988;18.664;2024-01-11T01:25:23;102142.88;;;-3.75;69.68
69772;BME280;57046;45.988;18.664;2024-01-11T01:27:48;102145.97;;;-3.71;69.64
69772;BME280;57046;45.988;18.664;2024-01-11T01:30:14;102143.06;;;-3.76;69.62
69772;BME280;57046;45.988;18.664;2024-01-11T01:32:39;102137.31;;;-3.80;69.17
69772;BME280;57046;45.988;18.664;2024-01-11T01:35:04;102148.53;;;-3.78;69.44
69772;BME280;57046;45.988;18.664;2024-01-11T01:37:30;102139.34;;;-3.82;69.53
69772;BME280;57046;45.988;18.664;2024-01-11T01:39:55;102148.63;;;-3.86;69.16
69772;BME280;57046;45.988;18.664;2024-01-11T01:42:20;102149.44;;;-3.85;69.15
69772;BME280;57046;45.988;18.664;2024-01-11T01:44:46;102146.34;;;-3.89;69.60
69772;BME280;57046;45.988;18.664;2024-01-11T01:47:11;102142.59;;;-3.94;69.03
69772;BME280;57046;45.988;18.664;2024-01-11T01:49:36;102146.06;;;-3.94;69.23
69772;BME280;57046;45.988;18.664;2024-01-11T01:52:02;102139.50;;;-3.98;69.74
69772;BME280;57046;45.988;18.664;2024-01-11T01:54:28;102139.50;;;-3.98;69.83
69772;BME280;57046;45.988;18.664;2024-01-11T01:56:54;102146.06;;;-3.94;69.42
69772;BME280;57046;45.988;18.664;2024-01-11T01:59:21;102131.16;;;-4.01;69.53
69772;BME280;57046;45.988;18.664;2024-01-11T02:01:46;102138.53;;;-3.97;69.77
69772;BME280;57046;45.988;18.664;2024-01-11T02:04:12;102136.06;;;-3.98;70.21
69772;BME280;57046;45.988;18.664;2024-01-11T02:06:38;102126.78;;;-4.09;69.83
69772;BME280;57046;45.988;18.664;2024-01-11T02:09:03;102141.06;;;-4.03;69.46
69772;BME280;57046;45.988;18.664;2024-01-11T02:11:28;102136.44;;;-4.01;69.96
69772;BME280;57046;45.988;18.664;2024-01-11T02:13:55;102134.81;;;-4.02;69.90
69772;BME280;57046;45.988;18.664;2024-01-11T02:16:20;102141.06;;;-4.03;70.47
69772;BME280;57046;45.988;18.664;2024-01-11T02:18:45;102143.34;;;-4.00;69.56
69772;BME280;57046;45.988;18.664;2024-01-11T02:21:11;102132.06;;;-4.09;70.16
69772;BME280;57046;45.988;18.664;2024-01-11T02:23:43;102129.81;;;-4.12;70.25
69772;BME280;57046;45.988;18.664;2024-01-11T02:26:08;102135.69;;;-4.10;70.87
69772;BME280;57046;45.988;18.664;2024-01-11T02:28:34;102123.88;;;-4.14;71.05
69772;BME280;57046;45.988;18.664;2024-01-11T02:30:59;102128.78;;;-4.11;71.28
69772;BME280;57046;45.988;18.664;2024-01-11T02:33:24;102125.31;;;-4.12;70.43
69772;BME280;57046;45.988;18.664;2024-01-11T02:35:50;102120.78;;;-4.03;70.37
69772;BME280;57046;45.988;18.664;2024-01-11T02:38:15;102111.13;;;-3.96;70.80
69772;BME280;57046;45.988;18.664;2024-01-11T02:40:41;102110.22;;;-4.03;70.27
69772;BME280;57046;45.988;18.664;2024-01-11T02:43:10;102104.50;;;-4.06;70.84
69772;BME280;57046;45.988;18.664;2024-01-11T02:45:36;102111.50;;;-3.99;70.76
69772;BME280;57046;45.988;18.664;2024-01-11T02:48:01;102100.56;;;-3.96;70.25
69772;BME280;57046;45.988;18.664;2024-01-11T02:50:27;102104.41;;;-3.98;69.88
69772;BME280;57046;45.988;18.664;2024-01-11T02:52:52;102111.97;;;-4.10;70.35
69772;BME280;57046;45.988;18.664;2024-01-11T02:55:17;102106.06;;;-4.12;69.99
69772;BME280;57046;45.988;18.664;2024-01-11T02:57:43;102096.28;;;-4.12;70.18
69772;BME280;57046;45.988;18.664;2024-01-11T03:00:08;102098.75;;;-4.10;70.15
69772;BME280;57046;45.988;18.664;2024-01-11T03:02:34;102100.41;;;-4.09;69.93
69772;BME280;57046;45.988;18.664;2024-01-11T03:04:59;102100.78;;;-4.12;69.84
69772;BME280;57046;45.988;18.664;2024-01-11T03:07:24;102097.78;;;-4.09;69.84
69772;BME280;57046;45.988;18.664;2024-01-11T03:09:49;102098.41;;;-4.07;69.30
69772;BME280;57046;45.988;18.664;2024-01-11T03:12:15;102097.94;;;-4.11;69.14
69772;BME280;57046;45.988;18.664;2024-01-11T03:14:40;102097.94;;;-4.11;69.15
69772;BME280;57046;45.988;18.664;2024-01-11T03:17:06;102100.41;;;-4.09;69.00
69772;BME280;57046;45.988;18.664;2024-01-11T03:19:32;102093.03;;;-4.14;69.33
69772;BME280;57046;45.988;18.664;2024-01-11T03:21:57;102096.19;;;-4.18;69.15
69772;BME280;57046;45.988;18.664;2024-01-11T03:24:22;102091.28;;;-4.21;68.94
69772;BME280;57046;45.988;18.664;2024-01-11T03:26:48;102089.75;;;-4.16;69.47
69772;BME280;57046;45.988;18.664;2024-01-11T03:29:13;102086.47;;;-4.18;68.69
69772;BME280;57046;45.988;18.664;2024-01-11T03:31:38;102083.22;;;-4.20;69.25
69772;BME280;57046;45.988;18.664;2024-01-11T03:34:04;102079.59;;;-4.19;68.68
69772;BME280;57046;45.988;18.664;2024-01-11T03:36:29;102068.81;;;-4.17;68.57
69772;BME280;57046;45.988;18.664;2024-01-11T03:38:54;102069.94;;;-4.26;69.39
69772;BME280;57046;45.988;18.664;2024-01-11T03:41:20;102061.94;;;-4.33;69.81
69772;BME280;57046;45.988;18.664;2024-01-11T03:43:45;102057.03;;;-4.36;69.69
69772;BME280;57046;45.988;18.664;2024-01-11T03:46:10;102059.66;;;-4.36;69.59
69772;BME280;57046;45.988;18.664;2024-01-11T03:48:36;102049.03;;;-4.42;70.25
69772;BME280;57046;45.988;18.664;2024-01-11T03:51:01;102049.44;;;-4.39;69.56
69772;BME280;57046;45.988;18.664;2024-01-11T03:53:27;102063.28;;;-4.37;70.03
69772;BME280;57046;45.988;18.664;2024-01-11T03:55:52;102062.38;;;-4.44;70.14
69772;BME280;57046;45.988;18.664;2024-01-11T03:58:17;102049.03;;;-4.42;69.84
69772;BME280;57046;45.988;18.664;2024-01-11T04:00:43;102053.19;;;-4.33;69.64
69772;BME280;57046;45.988;18.664;2024-01-11T04:03:08;102033.81;;;-4.40;69.49
69772;BME280;57046;45.988;18.664;2024-01-11T04:05:33;102042.09;;;-4.29;69.28
69772;BME280;57046;45.988;18.664;2024-01-11T04:07:59;102040.84;;;-4.33;69.42
69772;BME280;57046;45.988;18.664;2024-01-11T04:10:24;102037.81;;;-4.30;69.49
69772;BME280;57046;45.988;18.664;2024-01-11T04:12:49;102036.53;;;-4.34;68.87
69772;BME280;57046;45.988;18.664;2024-01-11T04:15:15;102042.81;;;-4.35;68.92
69772;BME280;57046;45.988;18.664;2024-01-11T04:17:40;102043.19;;;-4.38;69.23
69772;BME280;57046;45.988;18.664;2024-01-11T04:20:06;102041.19;;;-4.36;69.06
69772;BME280;57046;45.988;18.664;2024-01-11T04:22:32;102032.81;;;-4.39;69.21
69772;BME280;57046;45.988;18.664;2024-01-11T04:24:58;102030.00;;;-4.38;68.98
69772;BME280;57046;45.988;18.664;2024-01-11T04:27:23;102027.34;;;-4.38;68.95
69772;BME280;57046;45.988;18.664;2024-01-11T04:29:48;102026.53;;;-4.38;68.89
69772;BME280;57046;45.988;18.664;2024-01-11T04:32:13;102020.19;;;-4.44;69.04
69772;BME280;57046;45.988;18.664;2024-01-11T04:34:39;102020.25;;;-4.52;69.17
69772;BME280;57046;45.988;18.664;2024-01-11T04:37:06;102010.44;;;-4.58;68.94
69772;BME280;57046;45.988;18.664;2024-01-11T04:39:31;102018.66;;;-4.53;68.66
69772;BME280;57046;45.988;18.664;2024-01-11T04:41:56;102020.00;;;-4.57;68.72
69772;BME280;57046;45.988;18.664;2024-01-11T04:44:22;102012.91;;;-4.56;69.00
69772;BME280;57046;45.988;18.664;2024-01-11T04:46:47;102022.34;;;-4.62;68.57
69772;BME280;57046;45.988;18.664;2024-01-11T04:49:12;102016.91;;;-4.60;68.52
69772;BME280;57046;45.988;18.664;2024-01-11T04:51:38;102015.19;;;-4.68;69.10
69772;BME280;57046;45.988;18.664;2024-01-11T04:54:03;102006.63;;;-4.70;69.08
69772;BME280;57046;45.988;18.664;2024-01-11T04:56:29;102008.19;;;-4.61;68.93
69772;BME280;57046;45.988;18.664;2024-01-11T04:58:54;102012.16;;;-4.65;69.32
69772;BME280;57046;45.988;18.664;2024-01-11T05:01:19;102005.72;;;-4.63;68.57
69772;BME280;57046;45.988;18.664;2024-01-11T05:03:45;102004.91;;;-4.63;68.57
69772;BME280;57046;45.988;18.664;2024-01-11T05:06:18;102000.63;;;-4.64;69.21
69772;BME280;57046;45.988;18.664;2024-01-11T05:08:45;102002.19;;;-4.70;69.27
69772;BME280;57046;45.988;18.664;2024-01-11T05:11:22;101998.44;;;-4.75;68.94
69772;BME280;57046;45.988;18.664;2024-01-11T05:13:48;101988.88;;;-4.76;69.80
69772;BME280;57046;45.988;18.664;2024-01-11T05:16:20;101989.19;;;-4.71;69.33
69772;BME280;57046;45.988;18.664;2024-01-11T05:18:46;101997.91;;;-4.71;69.46
69772;BME280;57046;45.988;18.664;2024-01-11T05:21:12;101983.28;;;-4.73;69.38
69772;BME280;57046;45.988;18.664;2024-01-11T05:23:37;101995.44;;;-4.72;69.17
69772;BME280;57046;45.988;18.664;2024-01-11T05:26:02;101996.25;;;-4.72;69.10
69772;BME280;57046;45.988;18.664;2024-01-11T05:28:28;101989.53;;;-4.74;69.08
69772;BME280;57046;45.988;18.664;2024-01-11T05:30:53;101978.81;;;-4.87;69.29
69772;BME280;57046;45.988;18.664;2024-01-11T05:33:18;101995.19;;;-4.77;69.08
69772;BME280;57046;45.988;18.664;2024-01-11T05:35:44;101989.91;;;-4.77;68.94
69772;BME280;57046;45.988;18.664;2024-01-11T05:38:09;101997.63;;;-4.76;68.77
69772;BME280;57046;45.988;18.664;2024-01-11T05:40:34;101996.00;;;-4.77;69.00
69772;BME280;57046;45.988;18.664;2024-01-11T05:43:00;101993.53;;;-4.78;68.78
69772;BME280;57046;45.988;18.664;2024-01-11T05:45:25;101989.91;;;-4.77;68.92
69772;BME280;57046;45.988;18.664;2024-01-11T05:47:50;101997.25;;;-4.73;68.89
69772;BME280;57046;45.988;18.664;2024-01-11T05:50:16;101999.25;;;-4.75;69.26
69772;BME280;57046;45.988;18.664;2024-01-11T05:52:41;101992.81;;;-4.72;69.14
69772;BME280;57046;45.988;18.664;2024-01-11T05:55:06;101993.47;;;-4.70;69.32
69772;BME280;57046;45.988;18.664;2024-01-11T05:57:32;101995.44;;;-4.72;69.08
69772;BME280;57046;45.988;18.664;2024-01-11T05:59:57;101992.19;;;-4.74;68.59
69772;BME280;57046;45.988;18.664;2024-01-11T06:02:22;101996.25;;;-4.72;68.48
69772;BME280;57046;45.988;18.664;2024-01-11T06:04:48;101999.72;;;-4.71;68.17
69772;BME280;57046;45.988;18.664;2024-01-11T06:07:13;101997.91;;;-4.71;68.75
69772;BME280;57046;45.988;18.664;2024-01-11T06:09:38;101989.53;;;-4.74;68.53
69772;BME280;57046;45.988;18.664;2024-01-11T06:12:04;101996.09;;;-4.70;68.20
69772;BME280;57046;45.988;18.664;2024-01-11T06:14:29;101996.91;;;-4.70;69.14
69772;BME280;57046;45.988;18.664;2024-01-11T06:16:55;101999.00;;;-4.65;68.49
69772;BME280;57046;45.988;18.664;2024-01-11T06:19:20;101996.56;;;-4.67;68.91
69772;BME280;57046;45.988;18.664;2024-01-11T06:21:45;102005.09;;;-4.65;69.42
69772;BME280;57046;45.988;18.664;2024-01-11T06:24:11;102008.72;;;-4.66;69.44
69772;BME280;57046;45.988;18.664;2024-01-11T06:26:36;102008.53;;;-4.64;68.93
69772;BME280;57046;45.988;18.664;2024-01-11T06:29:01;102012.28;;;-4.73;69.33
69772;BME280;57046;45.988;18.664;2024-01-11T06:31:27;102015.72;;;-4.73;69.53
69772;BME280;57046;45.988;18.664;2024-01-11T06:33:52;102009.00;;;-4.75;69.15
69772;BME280;57046;45.988;18.664;2024-01-11T06:36:17;102022.47;;;-4.70;69.29
69772;BME280;57046;45.988;18.664;2024-01-11T06:38:43;102021.28;;;-4.68;69.41
69772;BME280;57046;45.988;18.664;2024-01-11T06:41:08;102016.00;;;-4.68;69.46
69772;BME280;57046;45.988;18.664;2024-01-11T06:43:33;102016.53;;;-4.72;69.74
69772;BME280;57046;45.988;18.664;2024-01-11T06:46:05;102017.81;;;-4.68;69.73
69772;BME280;57046;45.988;18.664;2024-01-11T06:48:31;102019.72;;;-4.62;69.54
69772;BME280;57046;45.988;18.664;2024-01-11T06:50:56;102024.63;;;-4.59;69.93
69772;BME280;57046;45.988;18.664;2024-01-11T06:53:22;102018.19;;;-4.56;69.83
69772;BME280;57046;45.988;18.664;2024-01-11T06:55:47;102005.00;;;-4.56;69.99
69772;BME280;57046;45.988;18.664;2024-01-11T06:58:12;102008.28;;;-4.54;69.62
69772;BME280;57046;45.988;18.664;2024-01-11T07:00:38;102013.19;;;-4.51;70.17
69772;BME280;57046;45.988;18.664;2024-01-11T07:03:03;102013.81;;;-4.49;69.45
69772;BME280;57046;45.988;18.664;2024-01-11T07:05:28;102017.53;;;-4.44;69.71
69772;BME280;57046;45.988;18.664;2024-01-11T07:07:54;102015.81;;;-4.37;69.62
69772;BME280;57046;45.988;18.664;2024-01-11T07:10:19;102020.56;;;-4.32;69.60
69772;BME280;57046;45.988;18.664;2024-01-11T07:12:44;102024.25;;;-4.27;69.46
69772;BME280;57046;45.988;18.664;2024-01-11T07:15:10;102022.53;;;-4.20;69.13
69772;BME280;57046;45.988;18.664;2024-01-11T07:17:35;102023.81;;;-4.16;69.18
69772;BME280;57046;45.988;18.664;2024-01-11T07:20:00;101990.97;;;-4.28;69.75
69772;BME280;57046;45.988;18.664;2024-01-11T07:22:26;102020.13;;;-4.00;69.15
69772;BME280;57046;45.988;18.664;2024-01-11T07:24:51;102019.38;;;-3.94;69.44
69772;BME280;57046;45.988;18.664;2024-01-11T07:27:17;102024.72;;;-3.87;69.50
69772;BME280;57046;45.988;18.664;2024-01-11T07:29:42;102022.34;;;-3.82;69.15
69772;BME280;57046;45.988;18.664;2024-01-11T07:32:07;102025.50;;;-3.72;68.95
69772;BME280;57046;45.988;18.664;2024-01-11T07:34:33;102011.75;;;-3.68;69.51
69772;BME280;57046;45.988;18.664;2024-01-11T07:36:58;102018.53;;;-3.58;69.67
69772;BME280;57046;45.988;18.664;2024-01-11T07:39:23;102005.56;;;-3.53;70.32
69772;BME280;57046;45.988;18.664;2024-01-11T07:41:49;102006.47;;;-3.46;70.49
69772;BME280;57046;45.988;18.664;2024-01-11T07:44:14;102001.88;;;-3.38;70.80
69772;BME280;57046;45.988;18.664;2024-01-11T07:46:39;102006.66;;;-3.27;70.68
69772;BME280;57046;45.988;18.664;2024-01-11T07:49:05;102014.81;;;-3.22;70.73
69772;BME280;57046;45.988;18.664;2024-01-11T07:51:31;102019.16;;;-3.14;70.16
69772;BME280;57046;45.988;18.664;2024-01-11T07:53:56;102007.44;;;-3.05;70.27
69772;BME280;57046;45.988;18.664;2024-01-11T07:56:21;101998.94;;;-3.00;70.62
69772;BME280;57046;45.988;18.664;2024-01-11T07:58:47;101988.75;;;-3.03;70.93
69772;BME280;57046;45.988;18.664;2024-01-11T08:01:12;101993.16;;;-3.11;71.32
69772;BME280;57046;45.988;18.664;2024-01-11T08:03:37;101987.66;;;-3.09;71.22
69772;BME280;57046;45.988;18.664;2024-01-11T08:06:03;101977.69;;;-3.14;71.51
69772;BME280;57046;45.988;18.664;2024-01-11T08:08:28;101983.69;;;-2.98;72.17
69772;BME280;57046;45.988;18.664;2024-01-11T08:10:53;101986.56;;;-2.93;72.62
69772;BME280;57046;45.988;18.664;2024-01-11T08:13:19;101993.38;;;-2.78;72.96
69772;BME280;57046;45.988;18.664;2024-01-11T08:15:44;101987.34;;;-2.65;73.15
69772;BME280;57046;45.988;18.664;2024-01-11T08:18:09;101985.81;;;-2.53;73.63
69772;BME280;57046;45.988;18.664;2024-01-11T08:20:35;101989.72;;;-2.42;73.44
69772;BME280;57046;45.988;18.664;2024-01-11T08:23:00;101981.03;;;-2.30;73.22
69772;BME280;57046;45.988;18.664;2024-01-11T08:25:25;101982.28;;;-2.19;72.72
69772;BME280;57046;45.988;18.664;2024-01-11T08:27:51;101967.38;;;-2.27;72.74
69772;BME280;57046;45.988;18.664;2024-01-11T08:30:17;101965.59;;;-2.20;72.83
69772;BME280;57046;45.988;18.664;2024-01-11T08:32:43;101969.06;;;-2.19;72.72
69772;BME280;57046;45.988;18.664;2024-01-11T08:35:11;101959.72;;;-2.15;73.07
69772;BME280;57046;45.988;18.664;2024-01-11T08:37:37;101966.66;;;-2.08;72.89
69772;BME280;57046;45.988;18.664;2024-01-11T08:40:03;101974.63;;;-2.01;73.10
69772;BME280;57046;45.988;18.664;2024-01-11T08:42:28;101978.47;;;-2.03;73.83
69772;BME280;57046;45.988;18.664;2024-01-11T08:44:53;101974.81;;;-2.02;74.23
69772;BME280;57046;45.988;18.664;2024-01-11T08:47:19;101981.34;;;-1.98;74.16
69772;BME280;57046;45.988;18.664;2024-01-11T08:49:44;101977.31;;;-1.81;74.10
69772;BME280;57046;45.988;18.664;2024-01-11T08:52:09;101940.81;;;-1.86;74.18
69772;BME280;57046;45.988;18.664;2024-01-11T08:54:34;101974.09;;;-1.50;73.97
69772;BME280;57046;45.988;18.664;2024-01-11T08:57:00;101978.81;;;-1.33;74.09
69772;BME280;57046;45.988;18.664;2024-01-11T08:59:26;101982.88;;;-1.24;74.18
69772;BME280;57046;45.988;18.664;2024-01-11T09:01:52;101982.03;;;-1.05;73.71
69772;BME280;57046;45.988;18.664;2024-01-11T09:04:18;101967.94;;;-0.98;74.26
69772;BME280;57046;45.988;18.664;2024-01-11T09:06:43;101972.25;;;-1.04;74.08
69772;BME280;57046;45.988;18.664;2024-01-11T09:09:12;101978.13;;;-0.76;73.88
69772;BME280;57046;45.988;18.664;2024-01-11T09:11:37;101979.75;;;-0.68;73.91
69772;BME280;57046;45.988;18.664;2024-01-11T09:14:03;101982.56;;;-0.57;74.03
69772;BME280;57046;45.988;18.664;2024-01-11T09:16:28;101967.91;;;-0.72;73.65
69772;BME280;57046;45.988;18.664;2024-01-11T09:18:54;101964.25;;;-0.65;73.69
69772;BME280;57046;45.988;18.664;2024-01-11T09:21:19;101965.03;;;-0.64;74.54
69772;BME280;57046;45.988;18.664;2024-01-11T09:23:45;101963.94;;;-0.43;74.51
69772;BME280;57046;45.988;18.664;2024-01-11T09:26:10;101949.81;;;-0.31;74.95
69772;BME280;57046;45.988;18.664;2024-01-11T09:28:35;101932.28;;;-0.38;75.59
69772;BME280;57046;45.988;18.664;2024-01-11T09:31:01;101937.50;;;-0.19;75.51
69772;BME280;57046;45.988;18.664;2024-01-11T09:33:26;101930.47;;;-0.07;75.94
69772;BME280;57046;45.988;18.664;2024-01-11T09:35:52;101934.75;;;-0.06;76.02
69772;BME280;57046;45.988;18.664;2024-01-11T09:38:17;101923.66;;;0.04;76.91
69772;BME280;57046;45.988;18.664;2024-01-11T09:40:42;101906.22;;;0.15;77.73
69772;BME280;57046;45.988;18.664;2024-01-11T09:43:09;101914.63;;;0.43;77.63
69772;BME280;57046;45.988;18.664;2024-01-11T09:45:34;101916.25;;;0.44;76.94
69772;BME280;57046;45.988;18.664;2024-01-11T09:48:02;101908.16;;;0.57;76.36
69772;BME280;57046;45.988;18.664;2024-01-11T09:50:28;101907.47;;;0.86;76.05
69772;BME280;57046;45.988;18.664;2024-01-11T09:52:54;101898.97;;;0.78;75.19
69772;BME280;57046;45.988;18.664;2024-01-11T09:55:20;101913.03;;;0.85;74.58
69772;BME280;57046;45.988;18.664;2024-01-11T09:57:47;101898.16;;;0.95;73.61
69772;BME280;57046;45.988;18.664;2024-01-11T10:00:16;101893.13;;;1.06;74.09
69772;BME280;57046;45.988;18.664;2024-01-11T10:02:41;101892.66;;;1.15;74.46
69772;BME280;57046;45.988;18.664;2024-01-11T10:05:07;101887.53;;;1.14;74.20
69772;BME280;57046;45.988;18.664;2024-01-11T10:07:34;101898.47;;;1.42;73.33
69772;BME280;57046;45.988;18.664;2024-01-11T10:10:00;101892.69;;;1.45;72.99
69772;BME280;57046;45.988;18.664;2024-01-11T10:12:26;101879.56;;;1.62;72.25
69772;BME280;57046;45.988;18.664;2024-01-11T10:14:52;101884.97;;;1.73;72.44
69772;BME280;57046;45.988;18.664;2024-01-11T10:17:17;101871.03;;;1.71;73.05
69772;BME280;57046;45.988;18.664;2024-01-11T10:19:43;101871.75;;;1.78;72.75
69772;BME280;57046;45.988;18.664;2024-01-11T10:22:08;101872.28;;;1.98;72.90
69772;BME280;57046;45.988;18.664;2024-01-11T10:24:33;101871.88;;;2.13;72.72
69772;BME280;57046;45.988;18.664;2024-01-11T10:26:59;101869.97;;;1.90;71.33
69772;BME280;57046;45.988;18.664;2024-01-11T10:29:30;101864.44;;;2.03;70.58
69772;BME280;57046;45.988;18.664;2024-01-11T10:31:56;101863.38;;;2.04;71.24
69772;BME280;57046;45.988;18.664;2024-01-11T10:34:23;101830.34;;;2.05;71.38
69772;BME280;57046;45.988;18.664;2024-01-11T10:36:50;101857.84;;;2.18;71.78
69772;BME280;57046;45.988;18.664;2024-01-11T10:39:16;101836.75;;;2.16;70.65
69772;BME280;57046;45.988;18.664;2024-01-11T10:41:47;101818.41;;;1.96;71.05
69772;BME280;57046;45.988;18.664;2024-01-11T10:44:20;101836.53;;;2.29;70.81
69772;BME280;57046;45.988;18.664;2024-01-11T10:46:46;101827.97;;;2.27;70.73
69772;BME280;57046;45.988;18.664;2024-01-11T10:49:11;101811.03;;;2.33;70.86
69772;BME280;57046;45.988;18.664;2024-01-11T10:51:39;101812.16;;;2.49;69.75
69772;BME280;57046;45.988;18.664;2024-01-11T10:54:07;101808.94;;;2.47;71.35
69772;BME280;57046;45.988;18.664;2024-01-11T10:56:33;101809.72;;;2.59;69.92
69772;BME280;57046;45.988;18.664;2024-01-11T10:59:00;101803.47;;;2.53;69.70
69772;BME280;57046;45.988;18.664;2024-01-11T11:01:26;101792.34;;;2.56;69.76
69772;BME280;57046;45.988;18.664;2024-01-11T11:03:52;101795.91;;;2.74;70.55
69772;BME280;57046;45.988;18.664;2024-01-11T11:06:20;101787.09;;;2.85;70.12
69772;BME280;57046;45.988;18.664;2024-01-11T11:08:49;101781.28;;;2.88;69.28
69772;BME280;57046;45.988;18.664;2024-01-11T11:11:17;101783.38;;;3.14;68.53
69772;BME280;57046;45.988;18.664;2024-01-11T11:13:46;101776.56;;;3.06;68.38
69772;BME280;57046;45.988;18.664;2024-01-11T11:16:15;101769.63;;;3.05;68.51
69772;BME280;57046;45.988;18.664;2024-01-11T11:18:40;101773.09;;;3.34;68.06
69772;BME280;57046;45.988;18.664;2024-01-11T11:21:09;101762.69;;;3.21;67.19
69772;BME280;57046;45.988;18.664;2024-01-11T11:23:34;101751.75;;;3.06;68.06
69772;BME280;57046;45.988;18.664;2024-01-11T11:26:00;101746.03;;;3.31;68.47
69772;BME280;57046;45.988;18.664;2024-01-11T11:28:25;101736.81;;;3.22;66.39
69772;BME280;57046;45.988;18.664;2024-01-11T11:30:52;101728.84;;;3.10;65.18
69772;BME280;57046;45.988;18.664;2024-01-11T11:35:46;101732.16;;;3.45;64.58
69772;BME280;57046;45.988;18.664;2024-01-11T11:38:20;101738.88;;;3.65;65.21
69772;BME280;57046;45.988;18.664;2024-01-11T11:40:47;101732.38;;;3.44;64.77
69772;BME280;57046;45.988;18.664;2024-01-11T11:43:12;101725.63;;;3.53;64.92
69772;BME280;57046;45.988;18.664;2024-01-11T11:45:38;101719.69;;;3.51;64.43
69772;BME280;57046;45.988;18.664;2024-01-11T11:53:35;101687.63;;;3.51;64.54
69772;BME280;57046;45.988;18.664;2024-01-11T11:56:01;101707.88;;;3.64;64.14
69772;BME280;57046;45.988;18.664;2024-01-11T11:58:31;101700.19;;;3.67;63.98
69772;BME280;57046;45.988;18.664;2024-01-11T12:01:00;101694.59;;;3.69;63.38
69772;BME280;57046;45.988;18.664;2024-01-11T12:03:29;101691.53;;;3.77;63.87
69772;BME280;57046;45.988;18.664;2024-01-11T12:05:55;101702.78;;;3.79;62.81
69772;BME280;57046;45.988;18.664;2024-01-11T12:08:21;101702.38;;;3.87;63.02
69772;BME280;57046;45.988;18.664;2024-01-11T12:10:47;101699.69;;;3.87;63.19
69772;BME280;57046;45.988;18.664;2024-01-11T12:13:12;101691.06;;;4.01;62.86
69772;BME280;57046;45.988;18.664;2024-01-11T12:15:38;101687.97;;;3.88;63.59
69772;BME280;57046;45.988;18.664;2024-01-11T12:18:03;101685.00;;;4.06;63.28
69772;BME280;57046;45.988;18.664;2024-01-11T12:20:29;101681.97;;;3.81;63.70
69772;BME280;57046;45.988;18.664;2024-01-11T12:22:54;101685.59;;;4.08;63.22
69772;BME280;57046;45.988;18.664;2024-01-11T12:25:21;101676.50;;;3.92;62.58
69772;BME280;57046;45.988;18.664;2024-01-11T12:27:46;101662.34;;;3.92;63.06
69772;BME280;57046;45.988;18.664;2024-01-11T12:30:12;101654.44;;;4.02;62.95
69772;BME280;57046;45.988;18.664;2024-01-11T12:32:37;101657.53;;;4.10;63.47
69772;BME280;57046;45.988;18.664;2024-01-11T12:35:03;101656.59;;;4.22;63.17
69772;BME280;57046;45.988;18.664;2024-01-11T12:37:30;101637.59;;;4.01;62.29
69772;BME280;57046;45.988;18.664;2024-01-11T12:39:58;101636.69;;;4.13;62.52
69772;BME280;57046;45.988;18.664;2024-01-11T12:42:23;101641.66;;;4.26;63.07